createdAt,value
2023-02-02T00:04:46.860Z,0.46488294314381273
2023-02-02T00:11:09.127Z,0.42474916387959866
2023-02-02T00:24:38.850Z,0.5819397993311036
2023-02-02T00:30:59.964Z,0.3277591973244147
2023-02-02T00:38:24.939Z,0.34448160535117056
2023-02-02T00:44:46.371Z,0.5518394648829431
2023-02-02T00:51:07.624Z,0.4080267558528428
2023-02-02T00:57:29.465Z,0.43812709030100333
2023-02-02T01:05:37.625Z,0.5351170568561873
2023-02-02T01:11:58.995Z,0.2976588628762542
2023-02-02T01:18:20.597Z,0.31438127090301005
2023-02-02T01:24:41.638Z,0.20066889632107024
2023-02-02T01:31:02.917Z,0.3311036789297659
2023-02-02T01:41:45.930Z,0.25418060200668896
2023-02-02T01:48:06.870Z,0.2909698996655518
2023-02-02T01:54:28.435Z,0.919732441471572
2023-02-02T02:00:49.196Z,0.34782608695652173
2023-02-02T02:07:10.705Z,0.3210702341137124
2023-02-02T02:13:33.487Z,0.9765886287625418
2023-02-02T02:19:55.475Z,0.822742474916388
2023-02-02T02:26:17.472Z,0.46153846153846156
2023-02-02T02:37:46.422Z,0.3177257525083612
2023-02-02T02:44:08.428Z,0.6153846153846154
2023-02-02T02:50:30.227Z,0.2608695652173913
2023-02-02T02:56:52.798Z,0.14381270903010032
2023-02-02T03:03:15.815Z,0.411371237458194
2023-02-02T03:13:33.917Z,0.3277591973244147
2023-02-02T03:19:55.816Z,0.451505016722408
2023-02-02T03:34:36.126Z,0.725752508361204
2023-02-02T03:40:58.184Z,0.47157190635451507
2023-02-02T03:47:20.521Z,0.40468227424749165
2023-02-02T03:53:42.370Z,0.6421404682274248
2023-02-02T04:00:03.937Z,0.5785953177257525
2023-02-02T04:06:25.615Z,0.5217391304347826
2023-02-02T04:14:49.117Z,0.5551839464882943
2023-02-02T04:21:10.635Z,0.7123745819397993
2023-02-02T04:27:32.444Z,0.7926421404682275
2023-02-02T04:33:54.343Z,0.5050167224080268
2023-02-02T04:45:49.239Z,0.5351170568561873
2023-02-02T04:54:12.094Z,0.4280936454849498
2023-02-02T05:00:34.073Z,0.5819397993311036
2023-02-02T05:06:55.738Z,0.38127090301003347
2023-02-02T05:13:17.411Z,0.68561872909699
2023-02-02T05:23:26.188Z,0.5652173913043478
2023-02-02T05:29:48.048Z,0.5083612040133779
2023-02-02T05:37:36.421Z,0.32441471571906355
2023-02-02T05:46:17.586Z,0.5250836120401338
2023-02-02T05:52:38.936Z,0.6153846153846154
2023-02-02T05:59:00.320Z,0.6287625418060201
2023-02-02T06:05:22.572Z,0.7759197324414716
2023-02-02T06:11:44.306Z,0.6722408026755853
2023-02-02T06:18:05.980Z,0.745819397993311
2023-02-02T06:24:38.878Z,0.6989966555183946
2023-02-02T06:31:00.681Z,0.8662207357859532
2023-02-02T06:37:22.579Z,0.9632107023411371
2023-02-02T06:43:44.195Z,0.8461538461538461
2023-02-02T06:50:06.136Z,0.903010033444816
2023-02-02T06:56:27.193Z,1.2775919732441472
2023-02-02T07:02:48.128Z,1.3244147157190636
2023-02-02T07:11:13.236Z,3.0066889632107023
2023-02-02T07:17:37.024Z,2.250836120401338
2023-02-02T07:23:58.917Z,1.2876254180602007
2023-02-02T07:31:05.851Z,1.5418060200668897
2023-02-02T07:39:39.093Z,0.9297658862876255
2023-02-02T07:48:00.754Z,1.157190635451505
2023-02-02T07:54:25.981Z,1.394648829431438
2023-02-02T08:00:50.836Z,2.6187290969899664
2023-02-02T08:07:17.062Z,1.9933110367892977
2023-02-02T08:19:31.596Z,3.076923076923077
2023-02-02T08:31:02.239Z,2.0635451505016724
2023-02-02T08:43:24.088Z,2.1103678929765888
2023-02-02T09:01:44.920Z,1.9866220735785953
2023-02-02T09:08:47.643Z,1.451505016722408
2023-02-02T09:15:12.493Z,1.2274247491638797
2023-02-02T09:24:26.357Z,1.0535117056856187
2023-02-02T09:38:13.321Z,1.4180602006688963
2023-02-02T09:44:37.986Z,1.2675585284280937
2023-02-02T09:51:02.035Z,1.1505016722408026
2023-02-02T09:57:26.878Z,1.3277591973244147
2023-02-02T10:05:38.961Z,1.0133779264214047
2023-02-02T10:12:03.799Z,1.9163879598662208
2023-02-02T10:25:48.193Z,5.869565217391305
2023-02-02T10:32:12.884Z,3.4615384615384617
2023-02-02T10:38:37.884Z,2.040133779264214
2023-02-02T10:57:17.505Z,1.4448160535117056
2023-02-02T11:11:58.470Z,2.1538461538461537
2023-02-02T11:18:23.995Z,1.508361204013378
2023-02-02T11:25:56.256Z,1.2207357859531773
2023-02-02T11:33:19.612Z,0.8260869565217391
2023-02-02T11:43:46.871Z,3.1137123745819397
2023-02-02T11:53:30.175Z,3.0735785953177257
2023-02-02T11:59:55.576Z,3.1939799331103678
2023-02-02T12:06:20.659Z,3.2474916387959865
2023-02-02T12:12:45.237Z,2.7123745819397995
2023-02-02T12:19:10.681Z,2.1103678929765888
2023-02-02T12:25:35.032Z,2.0501672240802677
2023-02-02T12:31:59.744Z,4.327759197324415
2023-02-02T12:38:24.769Z,3.17056856187291
2023-02-02T12:46:29.461Z,5.74247491638796
2023-02-02T12:52:53.811Z,2.7725752508361206
2023-02-02T12:59:19.284Z,2.117056856187291
2023-02-02T13:05:43.566Z,2.632107023411371
2023-02-02T13:12:08.224Z,3.3377926421404682
2023-02-02T13:18:33.390Z,2.2240802675585285
2023-02-02T13:25:00.012Z,2.531772575250836
2023-02-02T13:31:25.253Z,2.0434782608695654
2023-02-02T13:37:50.046Z,1.173913043478261
2023-02-02T13:44:16.040Z,0.7926421404682275
2023-02-02T13:50:40.756Z,1.7324414715719063
2023-02-02T13:57:05.381Z,1.5351170568561874
2023-02-02T14:03:30.172Z,0.5484949832775919
2023-02-02T14:09:55.059Z,1.3779264214046822
2023-02-02T14:16:20.290Z,1.4849498327759196
2023-02-02T14:25:53.728Z,1.0468227424749164
2023-02-02T14:32:42.832Z,1.6220735785953178
2023-02-02T14:39:07.892Z,1.8963210702341138
2023-02-02T14:45:33.483Z,1.8561872909698998
2023-02-02T14:54:06.554Z,0.8394648829431438
2023-02-02T15:00:32.255Z,1.9899665551839465
2023-02-02T15:37:14.879Z,1.6588628762541806
2023-02-02T15:43:55.242Z,2.1237458193979935
2023-02-02T15:50:20.576Z,4.086956521739131
2023-02-02T16:01:09.991Z,5.953177257525083
2023-02-02T16:07:32.208Z,2.8929765886287626
2023-02-02T16:13:53.669Z,3.076923076923077
2023-02-02T16:21:54.466Z,3.6722408026755855
2023-02-02T16:32:46.093Z,3.9364548494983276
2023-02-02T16:39:09.066Z,3.8060200668896322
2023-02-02T16:45:33.632Z,5.765886287625418
2023-02-02T16:51:56.231Z,4.852842809364549
2023-02-02T16:58:19.025Z,4.605351170568562
2023-02-02T17:04:40.953Z,3.3444816053511706
2023-02-02T17:11:03.637Z,4.59866220735786
2023-02-02T17:23:08.611Z,4.916387959866221
2023-02-02T17:29:30.813Z,3.782608695652174
2023-02-02T17:35:55.262Z,4.006688963210703
2023-02-02T17:42:18.086Z,3.0535117056856187
2023-02-02T17:48:39.650Z,3.277591973244147
2023-02-02T17:59:59.542Z,2.882943143812709
2023-02-02T18:14:24.170Z,2.648829431438127
2023-02-02T18:20:45.392Z,2.137123745819398
2023-02-02T18:27:06.481Z,2.210702341137124
2023-02-02T18:33:31.555Z,2.2876254180602005
2023-02-02T18:39:54.099Z,2.4180602006688963
2023-02-02T18:46:14.871Z,2.682274247491639
2023-02-02T18:52:35.476Z,2.5351170568561874
2023-02-02T18:59:26.757Z,2.729096989966555
2023-02-02T19:15:43.023Z,5.68561872909699
2023-02-02T19:22:07.873Z,5.548494983277592
2023-02-02T19:30:29.039Z,6.394648829431438
2023-02-02T19:42:13.672Z,6.8561872909699
2023-02-02T19:54:22.128Z,6.2207357859531776
2023-02-02T20:01:50.093Z,6.642140468227424
2023-02-02T20:08:11.793Z,7.65886287625418
2023-02-02T20:17:34.882Z,8.066889632107024
2023-02-02T20:23:56.415Z,8.050167224080267
2023-02-02T20:30:17.844Z,10.408026755852843
2023-02-02T20:36:39.019Z,9.68227424749164
2023-02-02T20:42:59.979Z,10.424749163879598
2023-02-02T20:49:21.307Z,10.397993311036789
2023-02-02T20:55:42.651Z,11.130434782608695
2023-02-02T21:02:04.403Z,10.735785953177258
2023-02-02T21:08:26.932Z,9.80267558528428
2023-02-02T21:14:54.107Z,9.816053511705686
2023-02-02T21:21:16.020Z,9.74581939799331
2023-02-02T21:27:37.146Z,10.304347826086957
2023-02-02T21:33:58.443Z,10.665551839464882
2023-02-02T21:42:16.963Z,11.20401337792642
2023-02-02T21:48:37.923Z,12.826086956521738
2023-02-02T21:54:58.840Z,13.42809364548495
2023-02-02T22:01:19.727Z,13.187290969899665
2023-02-02T22:14:29.020Z,11.040133779264215
2023-02-02T22:20:49.965Z,9.836120401337793
2023-02-02T22:28:14.114Z,9.053511705685619
2023-02-02T22:50:33.662Z,8.872909698996656
2023-02-02T22:56:55.773Z,8.946488294314381
2023-02-02T23:03:20.079Z,9.277591973244148
2023-02-02T23:19:35.054Z,8.381270903010034
2023-02-02T23:25:56.534Z,8.66220735785953
2023-02-02T23:32:19.269Z,8.177257525083611
2023-02-02T23:38:42.029Z,9.19732441471572
2023-02-02T23:49:02.677Z,9.48494983277592
2023-02-02T23:55:25.187Z,9.752508361204013
